Time;durP1;ratioP1;P1;durP2;ratioP2;P2;SDS_P1;SDS_P2;PMS_P1;PMS_P2;Temp;Humidity;BMP_temperature;BMP_pressure;BME280_temperature;BME280_humidity;BME280_pressure;Samples;Min_cycle;Max_cycle;Signal;HPM_P1;HPM_P2
2023/01/31 08:08:09;;;;;;;15.23;5.70;;;;;;;1.74;100.00;97078.31;6248260;23;20023;-88
2023/01/31 08:10:40;;;;;;;10.43;4.57;;;;;;;2.24;100.00;97085.84;6271131;22;20375;-88
2023/01/31 08:13:47;;;;;;;11.47;4.53;;;;;;;2.34;100.00;97075.78;6220294;23;20020;-88
2023/01/31 08:16:58;;;;;;;25.20;16.67;;;;;;;2.21;100.00;97078.25;6246232;23;20065;-90
2023/01/31 08:19:29;;;;;;;112.57;30.53;;;;;;;2.92;100.00;97087.13;6250964;23;20055;-89
2023/01/31 08:21:59;;;;;;;167.43;70.57;;;;;;;3.27;100.00;97085.03;6222712;23;20019;-92
2023/01/31 08:24:47;;;;;;;18.87;9.57;;;;;;;3.46;100.00;97074.34;6244650;23;20080;-88
2023/01/31 08:27:13;;;;;;;8.50;4.07;;;;;;;2.96;100.00;97076.47;6246165;23;20035;-88
2023/01/31 08:29:39;;;;;;;11.70;4.57;;;;;;;3.05;100.00;97075.94;6247657;23;20073;-88
2023/01/31 08:32:05;;;;;;;12.93;5.00;;;;;;;2.42;100.00;97083.16;6252882;23;20070;-88
2023/01/31 08:34:31;;;;;;;16.00;5.43;;;;;;;1.77;100.00;97091.09;6215815;23;20040;-89
2023/01/31 08:37:00;;;;;;;13.33;5.23;;;;;;;2.39;100.00;97089.34;6241493;23;20015;-89
2023/01/31 08:39:25;;;;;;;13.83;4.40;;;;;;;2.06;100.00;97095.53;6241839;23;20012;-88
2023/01/31 08:42:41;;;;;;;12.00;3.93;;;;;;;2.55;100.00;97107.50;6219586;23;20023;-87
2023/01/31 08:45:07;;;;;;;9.97;3.97;;;;;;;2.73;100.00;97102.97;6244718;23;20020;-88
2023/01/31 08:47:44;;;;;;;11.97;3.63;;;;;;;3.45;100.00;97094.28;6222647;23;20020;-88
2023/01/31 08:50:21;;;;;;;18.73;5.53;;;;;;;3.06;100.00;97098.41;6240510;23;20012;-87
2023/01/31 08:52:52;;;;;;;13.40;4.40;;;;;;;2.92;100.00;97088.00;6242494;23;20066;-87
2023/01/31 08:55:21;;;;;;;10.73;4.07;;;;;;;2.60;100.00;97085.50;6243841;23;20071;-88
2023/01/31 08:57:54;;;;;;;11.83;4.70;;;;;;;2.79;100.00;97092.25;6239636;23;20008;-88
2023/01/31 09:00:34;;;;;;;15.57;4.82;;;;;;;2.66;100.00;97093.88;6241515;23;20000;-88
2023/01/31 09:03:15;;;;;;;12.40;4.53;;;;;;;2.44;100.00;97099.47;6243585;23;20094;-88
2023/01/31 09:05:41;;;;;;;14.90;4.87;;;;;;;2.60;100.00;97100.25;6242880;23;20015;-88
2023/01/31 09:08:14;;;;;;;13.60;4.17;;;;;;;2.51;100.00;97101.59;6215965;23;20016;-87
2023/01/31 09:10:41;;;;;;;14.40;4.35;;;;;;;2.71;100.00;97105.66;6218860;23;20012;-88
2023/01/31 09:13:28;;;;;;;12.77;5.03;;;;;;;2.82;100.00;97105.06;6219960;23;20023;-88
2023/01/31 09:16:00;;;;;;;11.37;4.33;;;;;;;2.56;100.00;97099.59;6247343;23;20093;-88
2023/01/31 09:18:26;;;;;;;14.77;4.57;;;;;;;2.94;100.00;97113.88;6241144;23;20019;-87
2023/01/31 09:20:53;;;;;;;13.87;4.40;;;;;;;2.74;100.00;97107.25;6241499;23;20062;-87
2023/01/31 09:23:22;;;;;;;11.80;4.40;;;;;;;2.68;100.00;97092.00;6215478;23;20008;-88
2023/01/31 09:25:57;;;;;;;14.70;5.00;;;;;;;2.71;100.00;97104.81;6217948;23;20008;-88
2023/01/31 09:28:25;;;;;;;15.20;5.10;;;;;;;3.06;100.00;97101.00;6217117;23;20071;-88
2023/01/31 09:31:01;;;;;;;16.60;6.00;;;;;;;2.72;100.00;97098.72;6241776;23;20071;-88
2023/01/31 09:33:32;;;;;;;16.27;5.23;;;;;;;2.92;100.00;97100.97;6216667;23;20016;-88
2023/01/31 09:36:07;;;;;;;11.07;4.30;;;;;;;2.89;100.00;97100.34;6241982;23;20620;-87
2023/01/31 09:38:34;;;;;;;19.17;5.83;;;;;;;3.11;100.00;97089.47;6240577;23;20012;-87
2023/01/31 09:41:06;;;;;;;14.43;4.03;;;;;;;3.26;100.00;97088.56;6240807;23;20000;-87
2023/01/31 09:43:42;;;;;;;17.47;4.83;;;;;;;3.15;100.00;97096.16;6216686;23;20019;-88
2023/01/31 09:46:15;;;;;;;9.90;4.83;;;;;;;3.39;100.00;97099.88;6218650;23;20043;-87
2023/01/31 09:48:48;;;;;;;14.55;5.00;;;;;;;3.18;100.00;97104.59;6219231;23;20011;-85
2023/01/31 09:51:17;;;;;;;18.47;5.20;;;;;;;3.12;100.00;97109.34;6255568;23;20010;-86
2023/01/31 09:53:55;;;;;;;16.50;5.10;;;;;;;3.15;100.00;97096.97;6216690;23;20121;-87
2023/01/31 09:56:34;;;;;;;12.33;4.83;;;;;;;2.99;100.00;97094.50;6240979;23;20015;-86
2023/01/31 09:59:15;;;;;;;11.47;4.80;;;;;;;3.19;100.00;97082.06;6217177;23;20070;-86
2023/01/31 10:02:18;;;;;;;24.20;5.87;;;;;;;3.21;100.00;97088.81;6240701;23;20349;-87
2023/01/31 10:05:23;;;;;;;20.27;5.90;;;;;;;3.13;100.00;97087.63;6241868;23;20447;-86
2023/01/31 10:08:16;;;;;;;14.73;4.67;;;;;;;2.86;100.00;97088.34;6241519;23;20016;-87
2023/01/31 10:11:06;;;;;;;12.60;4.20;;;;;;;2.96;100.00;97092.06;6214628;23;20452;-86
2023/01/31 10:13:38;;;;;;;28.60;6.10;;;;;;;2.98;100.00;97079.81;6240645;23;20644;-86
2023/01/31 10:16:28;;;;;;;15.47;4.83;;;;;;;3.01;100.00;97091.78;6239739;23;20020;-86
2023/01/31 10:19:13;;;;;;;12.77;5.10;;;;;;;3.13;100.00;97092.84;6216216;23;20023;-86
2023/01/31 10:21:49;;;;;;;13.53;6.50;;;;;;;3.25;100.00;97107.66;6215049;23;20004;-86
2023/01/31 10:24:27;;;;;;;15.43;6.10;;;;;;;3.03;100.00;97106.38;6240430;23;20070;-85
2023/01/31 10:27:05;;;;;;;12.80;4.63;;;;;;;3.10;100.00;97106.00;6241251;23;20015;-88
2023/01/31 10:29:46;;;;;;;12.23;4.60;;;;;;;3.38;100.00;97107.75;6244334;23;20012;-88
2023/01/31 10:32:38;;;;;;;12.83;4.23;;;;;;;3.87;100.00;97104.75;6243725;23;20086;-87
2023/01/31 10:35:20;;;;;;;13.00;4.60;;;;;;;3.62;100.00;97082.88;6215765;23;20048;-87
2023/01/31 10:37:58;;;;;;;15.43;4.57;;;;;;;3.62;100.00;97079.41;6219540;23;20648;-89
2023/01/31 10:40:38;;;;;;;10.83;3.93;;;;;;;3.93;100.00;97060.97;6242530;23;20008;-89
2023/01/31 10:43:28;;;;;;;12.20;3.97;;;;;;;4.42;100.00;97049.13;6242330;23;20019;-89
2023/01/31 10:46:14;;;;;;;14.50;5.53;;;;;;;4.63;100.00;97039.06;6215924;23;20054;-88
2023/01/31 10:48:42;;;;;;;11.77;4.13;;;;;;;4.00;100.00;97033.59;6244704;23;20232;-89
2023/01/31 10:51:42;;;;;;;18.83;4.33;;;;;;;3.69;100.00;97026.94;6217207;23;20028;-85
2023/01/31 10:54:39;;;;;;;11.03;4.63;;;;;;;3.67;100.00;97030.56;6242503;23;20079;-85
2023/01/31 10:57:11;;;;;;;14.80;4.80;;;;;;;3.65;100.00;97003.78;6244616;23;20043;-89
2023/01/31 10:59:47;;;;;;;10.80;4.27;;;;;;;3.24;100.00;97017.63;6218927;23;20020;-89
2023/01/31 11:02:23;;;;;;;7.90;3.90;;;;;;;2.96;100.00;97034.91;6244509;23;20051;-89
2023/01/31 11:04:59;;;;;;;14.53;4.13;;;;;;;3.42;100.00;97042.50;6221601;23;20016;-85
2023/01/31 11:07:30;;;;;;;12.67;4.07;;;;;;;3.22;100.00;97045.47;6261722;22;20016;-85
2023/01/31 11:10:26;;;;;;;12.87;3.93;;;;;;;3.17;100.00;97042.34;6217376;23;20074;-85
2023/01/31 11:13:06;;;;;;;11.60;3.90;;;;;;;3.29;100.00;97052.00;6216346;23;20020;-85
2023/01/31 11:15:38;;;;;;;12.80;3.83;;;;;;;2.97;100.00;97038.34;6241170;23;20012;-85
2023/01/31 11:18:14;;;;;;;14.97;4.97;;;;;;;3.12;100.00;97018.38;6219474;23;20016;-88
2023/01/31 11:20:47;;;;;;;9.13;3.43;;;;;;;3.09;100.00;97024.63;6218265;23;20008;-87
2023/01/31 11:23:25;;;;;;;109.05;50.33;;;;;;;4.05;100.00;97009.03;6245659;23;20085;-93
2023/01/31 11:25:55;;;;;;;14.97;5.67;;;;;;;4.18;100.00;97004.69;6267201;22;20326;-88
2023/01/31 11:28:39;;;;;;;13.17;5.17;;;;;;;3.75;100.00;96987.50;6242624;23;20015;-84
2023/01/31 11:31:33;;;;;;;11.00;3.92;;;;;;;3.74;100.00;96979.81;6242189;23;20047;-88
2023/01/31 11:34:16;;;;;;;13.60;3.47;;;;;;;3.91;100.00;96978.72;6243521;23;20034;-88
2023/01/31 11:36:46;;;;;;;10.60;4.68;;;;;;;3.99;100.00;96979.88;6242074;23;20031;-88
2023/01/31 11:39:36;;;;;;;14.03;4.17;;;;;;;4.04;100.00;96992.59;6216718;23;20050;-88
2023/01/31 11:43:03;;;;;;;8.80;3.90;;;;;;;4.17;100.00;96992.63;6243419;23;20019;-84
2023/01/31 11:58:22;;;;;;;12.00;3.23;;;;;;;3.82;100.00;96959.31;6153624;23;20089;-89
2023/01/31 12:01:43;;;;;;;6.97;2.97;;;;;;;3.80;100.00;96952.56;6150059;23;20024;-82
2023/01/31 12:15:59;;;;;;;13.73;3.07;;;;;;;3.33;100.00;96936.47;6134699;23;20029;-88
2023/01/31 12:18:28;;;;;;;9.63;3.60;;;;;;;3.45;100.00;96927.03;6171502;23;20606;-86
2023/01/31 12:21:26;;;;;;;7.97;2.70;;;;;;;3.38;100.00;96907.56;6185345;23;20004;-86
2023/01/31 12:24:12;;;;;;;11.67;3.10;;;;;;;3.36;100.00;96894.69;6181585;23;20100;-85
2023/01/31 12:26:56;;;;;;;12.03;3.67;;;;;;;3.45;100.00;96891.47;6163332;22;20012;-86
2023/01/31 12:29:34;;;;;;;12.33;3.70;;;;;;;3.49;100.00;96895.56;6242867;23;20012;-88
2023/01/31 12:32:38;;;;;;;16.77;6.67;;;;;;;3.65;100.00;96891.94;6222987;23;20059;-89
2023/01/31 12:39:11;;;;;;;14.70;3.63;;;;;;;3.45;100.00;96883.66;6261231;22;20080;-91
2023/01/31 12:41:40;;;;;;;9.87;4.23;;;;;;;3.60;100.00;96881.03;6254151;22;20329;-90
2023/01/31 12:44:16;;;;;;;8.90;2.63;;;;;;;3.51;100.00;96885.06;6248263;23;20042;-91
2023/01/31 12:46:57;;;;;;;9.23;3.30;;;;;;;3.28;100.00;96889.13;6221687;23;20385;-90
2023/01/31 12:49:50;;;;;;;12.33;2.83;;;;;;;3.19;100.00;96884.53;6242903;23;20043;-90
2023/01/31 12:52:47;;;;;;;12.57;2.87;;;;;;;3.16;100.00;96869.13;6199707;23;20031;-90
2023/01/31 12:55:40;;;;;;;13.43;3.50;;;;;;;3.22;100.00;96855.72;6245923;23;20011;-89
2023/01/31 12:58:44;;;;;;;9.37;3.33;;;;;;;3.15;100.00;96859.66;6223976;23;20024;-90
2023/01/31 13:01:23;;;;;;;10.20;2.65;;;;;;;3.08;100.00;96838.44;6225607;23;20014;-90
2023/01/31 13:04:08;;;;;;;14.33;3.80;;;;;;;3.19;100.00;96842.97;6247543;23;20039;-89
2023/01/31 13:06:39;;;;;;;17.93;3.20;;;;;;;3.06;100.00;96840.31;6241667;23;20012;-91
2023/01/31 13:09:16;;;;;;;8.90;3.63;;;;;;;3.13;100.00;96827.75;6217887;23;20016;-91
2023/01/31 13:11:48;;;;;;;11.43;2.83;;;;;;;3.10;100.00;96841.78;6217487;23;20008;-90
2023/01/31 13:14:21;;;;;;;11.43;3.10;;;;;;;3.20;100.00;96829.03;6242629;23;20027;-90
2023/01/31 13:16:59;;;;;;;10.10;2.85;;;;;;;3.01;100.00;96830.19;6215613;23;20016;-90
2023/01/31 13:19:27;;;;;;;12.77;3.63;;;;;;;3.07;100.00;96835.00;6217691;23;20020;-91
2023/01/31 13:22:12;;;;;;;12.13;3.80;;;;;;;2.87;100.00;96837.19;6216831;23;19996;-90
2023/01/31 13:25:20;;;;;;;13.10;2.67;;;;;;;2.92;100.00;96836.00;6245130;23;20474;-91
2023/01/31 14:21:30;;;;;;;259.53;27.03;;;;;;;3.74;100.00;96819.34;6231145;23;20070;-87
2023/01/31 14:24:43;;;;;;;81.17;10.07;;;;;;;4.38;100.00;96803.69;6241394;23;20040;-86
2023/01/31 14:34:59;;;;;;;8.53;2.60;;;;;;;3.35;100.00;96786.41;6240412;23;20062;-81
2023/01/31 14:37:41;;;;;;;14.67;3.50;;;;;;;3.05;100.00;96800.50;6238636;23;20016;-81
2023/01/31 14:40:13;;;;;;;8.23;2.67;;;;;;;2.95;100.00;96806.34;6238921;23;20023;-81
2023/01/31 14:43:27;;;;;;;15.07;4.60;;;;;;;2.81;100.00;96805.47;6239338;22;20092;-81
2023/01/31 14:46:11;;;;;;;6.35;2.30;;;;;;;2.70;100.00;96804.50;6198458;23;20015;-81
2023/01/31 14:48:54;;;;;;;10.50;2.50;;;;;;;2.79;100.00;96803.94;6239083;23;20016;-81
2023/01/31 14:51:58;;;;;;;10.33;3.43;;;;;;;2.76;100.00;96798.94;6212766;23;20019;-82
2023/01/31 14:54:51;;;;;;;6.88;2.55;;;;;;;2.62;100.00;96793.78;6239688;23;20395;-82
2023/01/31 14:57:17;;;;;;;8.32;2.83;;;;;;;2.58;100.00;96780.97;6217892;23;20024;-90
2023/01/31 14:59:45;;;;;;;10.50;2.80;;;;;;;2.40;100.00;96789.91;6243963;23;20000;-90
2023/01/31 15:02:29;;;;;;;8.63;2.93;;;;;;;2.43;100.00;96783.69;6239100;23;20115;-82
2023/01/31 15:05:10;;;;;;;11.33;2.70;;;;;;;2.43;100.00;96794.91;6239602;23;20008;-81
2023/01/31 15:07:36;;;;;;;11.83;3.57;;;;;;;2.52;100.00;96789.16;6239033;23;20022;-82
2023/01/31 15:10:03;;;;;;;12.63;3.97;;;;;;;2.45;100.00;96798.25;6240309;23;20020;-82
2023/01/31 15:12:53;;;;;;;10.23;2.87;;;;;;;2.40;100.00;96831.44;6238300;23;20043;-90
2023/01/31 15:15:30;;;;;;;6.87;2.67;;;;;;;2.35;100.00;96841.28;6239945;23;20008;-89
2023/01/31 15:18:01;;;;;;;9.83;3.03;;;;;;;2.33;100.00;96853.50;6217899;23;20074;-82
2023/01/31 15:20:50;;;;;;;5.97;2.50;;;;;;;2.29;100.00;96834.69;6243441;23;20015;-90
2023/01/31 15:23:28;;;;;;;9.90;3.10;;;;;;;2.29;100.00;96841.66;6243293;23;20012;-90
2023/01/31 15:25:57;;;;;;;11.67;3.00;;;;;;;2.26;100.00;96857.41;6218133;23;20628;-82
2023/01/31 15:28:31;;;;;;;10.60;4.07;;;;;;;2.22;100.00;96851.56;6217301;23;20068;-90
2023/01/31 15:31:01;;;;;;;8.97;3.00;;;;;;;2.25;100.00;96846.19;6217590;23;20111;-90
2023/01/31 15:33:56;;;;;;;9.17;4.40;;;;;;;2.21;100.00;96843.88;6219150;23;20020;-90
2023/01/31 15:36:44;;;;;;;7.63;2.67;;;;;;;2.21;100.00;96834.31;6246363;23;20035;-90
2023/01/31 15:51:33;;;;;;;;;;;;;;;;;;;;;
2023/01/31 15:59:00;;;;;;;10.03;3.87;;;;;;;2.06;100.00;96853.41;6153493;23;20040;-89
2023/01/31 16:02:36;;;;;;;8.87;2.90;;;;;;;2.01;100.00;96856.28;6095931;23;20042;-90
2023/01/31 16:05:06;;;;;;;8.23;2.80;;;;;;;1.95;100.00;96843.69;6127744;23;20009;-89
2023/01/31 16:07:36;;;;;;;10.33;3.70;;;;;;;1.87;100.00;96851.91;6272694;22;20016;-90
2023/01/31 16:10:14;;;;;;;9.63;2.50;;;;;;;1.83;100.00;96854.78;6247078;23;20069;-89
2023/01/31 16:13:02;;;;;;;11.73;4.60;;;;;;;1.79;100.00;96858.47;6247143;22;20024;-90
2023/01/31 16:15:51;;;;;;;14.30;4.47;;;;;;;1.75;100.00;96868.19;6244606;23;20016;-88
2023/01/31 16:18:20;;;;;;;8.20;3.00;;;;;;;1.71;100.00;96873.63;6222794;23;20015;-88
2023/01/31 16:21:38;;;;;;;8.00;3.67;;;;;;;1.71;100.00;96860.66;6271686;22;20008;-89
2023/01/31 16:24:09;;;;;;;10.03;4.00;;;;;;;1.64;100.00;96867.97;6217769;23;20020;-88
2023/01/31 16:26:45;;;;;;;11.63;3.77;;;;;;;1.56;100.00;96876.19;6244774;23;20012;-89
2023/01/31 16:29:18;;;;;;;8.30;3.43;;;;;;;1.58;100.00;96874.34;6217605;23;20016;-88
2023/01/31 16:32:05;;;;;;;9.07;4.35;;;;;;;1.55;100.00;96871.94;6220265;23;20437;-90
2023/01/31 16:34:35;;;;;;;7.67;3.40;;;;;;;1.51;100.00;96865.28;6248267;23;20012;-90
2023/01/31 16:37:45;;;;;;;12.40;4.50;;;;;;;1.48;100.00;96875.81;6247513;23;20028;-88
2023/01/31 16:40:30;;;;;;;12.17;3.83;;;;;;;1.46;100.00;96877.66;6221767;23;20510;-90
2023/01/31 16:43:23;;;;;;;9.10;4.13;;;;;;;1.48;100.00;96881.00;6246765;23;20143;-90
2023/01/31 16:46:26;;;;;;;10.10;4.50;;;;;;;1.35;100.00;96886.03;6239347;23;20016;-90
2023/01/31 16:49:43;;;;;;;12.80;5.97;;;;;;;1.30;100.00;96879.44;6221539;23;20047;-89
2023/01/31 16:52:11;;;;;;;11.63;5.00;;;;;;;1.18;100.00;96889.56;6249191;23;20075;-89
2023/01/31 17:28:53;;;;;;;21.20;8.23;;;;;;;0.86;100.00;96927.56;6245643;23;21006;-88
2023/01/31 17:31:22;;;;;;;14.55;6.82;;;;;;;0.83;100.00;96917.38;6243374;23;20435;-89
2023/01/31 17:33:50;;;;;;;18.97;8.97;;;;;;;0.90;100.00;96920.47;6225677;23;20023;-88
2023/01/31 17:36:16;;;;;;;17.33;9.53;;;;;;;0.87;100.00;96923.22;6196262;23;20427;-89
2023/01/31 17:38:42;;;;;;;14.00;7.93;;;;;;;0.91;100.00;96922.16;6217858;23;20721;-89
2023/01/31 17:41:14;;;;;;;14.23;6.63;;;;;;;0.83;100.00;96919.13;6247437;23;20969;-89
2023/01/31 17:43:48;;;;;;;15.50;6.20;;;;;;;0.83;100.00;96907.03;6217069;23;20418;-88
2023/01/31 17:46:16;;;;;;;20.53;8.73;;;;;;;0.83;100.00;96908.78;6217376;23;20489;-89
2023/01/31 17:48:43;;;;;;;15.57;8.43;;;;;;;0.83;100.00;96911.38;6223106;23;20419;-89
2023/01/31 17:51:12;;;;;;;11.03;5.70;;;;;;;0.82;100.00;96922.66;6258569;23;20431;-88
2023/01/31 17:53:40;;;;;;;10.63;6.17;;;;;;;0.83;100.00;96916.56;6216467;23;20419;-88
2023/01/31 17:56:14;;;;;;;12.70;6.23;;;;;;;0.77;100.00;96919.47;6242677;23;21029;-89
2023/01/31 17:58:40;;;;;;;12.20;6.43;;;;;;;0.78;100.00;96922.00;6242491;23;20426;-88
2023/01/31 18:01:12;;;;;;;16.30;6.03;;;;;;;0.80;100.00;96927.06;6215721;23;20493;-88
2023/01/31 18:03:38;;;;;;;15.83;6.53;;;;;;;0.79;100.00;96915.88;6216381;23;20012;-89
2023/01/31 18:06:08;;;;;;;12.70;6.30;;;;;;;0.79;100.00;96917.66;6216107;23;20442;-89
2023/01/31 18:08:34;;;;;;;14.03;6.40;;;;;;;0.70;100.00;96914.66;6216841;23;20012;-89
2023/01/31 18:11:12;;;;;;;12.97;6.83;;;;;;;0.75;100.00;96908.38;6240597;23;20418;-88
2023/01/31 18:13:40;;;;;;;17.57;6.97;;;;;;;0.77;100.00;96915.16;6216116;23;20015;-88
2023/01/31 18:16:25;;;;;;;13.07;7.40;;;;;;;0.73;100.00;96915.38;6240541;23;21581;-88
2023/01/31 18:19:13;;;;;;;21.30;11.17;;;;;;;0.85;100.00;96906.97;6240550;23;20375;-89
2023/01/31 18:21:43;;;;;;;11.10;6.37;;;;;;;0.72;100.00;96908.53;6240134;22;20414;-88
2023/01/31 18:24:13;;;;;;;14.70;7.00;;;;;;;0.71;100.00;96915.47;6217529;23;20485;-88
2023/01/31 18:26:39;;;;;;;15.67;8.47;;;;;;;0.62;100.00;96921.97;6242264;23;20407;-88
2023/01/31 18:29:05;;;;;;;15.93;7.70;;;;;;;0.62;100.00;96923.72;6241640;23;20422;-87
2023/01/31 18:31:34;;;;;;;18.00;7.73;;;;;;;0.56;100.00;96924.88;6244373;23;20028;-95
2023/01/31 18:34:50;;;;;;;13.37;7.40;;;;;;;0.63;100.00;96908.09;6222313;23;20487;-94
2023/01/31 18:37:19;;;;;;;15.97;7.73;;;;;;;0.66;100.00;96920.88;6220411;23;20644;-92
2023/01/31 18:39:55;;;;;;;22.93;10.90;;;;;;;0.67;100.00;96914.81;6245450;23;20402;-90
2023/01/31 18:42:25;;;;;;;13.60;7.43;;;;;;;0.73;100.00;96925.72;6219910;23;20442;-89
2023/01/31 18:44:51;;;;;;;12.87;6.93;;;;;;;0.69;100.00;96920.72;6217483;23;20422;-88
2023/01/31 18:47:17;;;;;;;16.07;7.60;;;;;;;0.68;100.00;96926.00;6239956;23;20423;-88
2023/01/31 18:49:42;;;;;;;13.67;7.33;;;;;;;0.64;100.00;96927.06;6217567;23;20019;-88
2023/01/31 18:52:10;;;;;;;16.50;7.50;;;;;;;0.70;100.00;96916.38;6219466;23;20016;-88
2023/01/31 18:54:48;;;;;;;15.53;6.73;;;;;;;0.72;100.00;96908.53;6218106;23;20012;-88
2023/01/31 18:57:14;;;;;;;12.50;6.23;;;;;;;0.69;100.00;96912.94;6245824;23;20014;-88
2023/01/31 18:59:39;;;;;;;10.63;6.63;;;;;;;0.66;100.00;96900.16;6257907;22;20371;-88
2023/01/31 19:02:26;;;;;;;19.53;8.20;;;;;;;0.77;100.00;96898.75;6219063;23;20772;-88
2023/01/31 19:04:51;;;;;;;13.53;6.23;;;;;;;0.77;100.00;96906.53;6218265;23;20027;-90
2023/01/31 19:07:17;;;;;;;17.63;6.93;;;;;;;0.86;100.00;96912.03;6242993;22;20415;-90
2023/01/31 19:09:54;;;;;;;12.77;6.47;;;;;;;0.93;100.00;96902.19;6217793;23;20104;-89
2023/01/31 19:12:20;;;;;;;11.07;5.83;;;;;;;0.85;100.00;96906.97;6244438;23;20019;-88
2023/01/31 19:14:45;;;;;;;15.47;8.87;;;;;;;0.93;100.00;96897.00;6215842;23;20415;-89
2023/01/31 19:17:11;;;;;;;11.53;5.93;;;;;;;0.99;100.00;96886.31;6217726;23;20107;-87
2023/01/31 19:19:42;;;;;;;12.83;6.50;;;;;;;0.98;100.00;96871.72;6216154;23;20043;-88
2023/01/31 19:22:08;;;;;;;14.50;6.03;;;;;;;1.07;100.00;96871.19;6241868;23;20016;-89
2023/01/31 19:24:47;;;;;;;24.10;8.80;;;;;;;1.05;100.00;96867.84;6217385;23;20465;-89
2023/01/31 19:27:13;;;;;;;13.20;5.67;;;;;;;1.00;100.00;96872.44;6243267;23;20259;-88
2023/01/31 19:29:40;;;;;;;12.33;6.60;;;;;;;1.03;100.00;96874.03;6243381;23;20406;-89
2023/01/31 19:32:11;;;;;;;13.77;6.40;;;;;;;1.02;100.00;96868.03;6244491;23;20444;-88
2023/01/31 19:34:41;;;;;;;13.63;6.47;;;;;;;1.07;100.00;96878.13;6219182;23;20437;-88
2023/01/31 19:37:09;;;;;;;13.33;6.40;;;;;;;0.99;100.00;96875.97;6244087;23;20472;-87
2023/01/31 19:39:41;;;;;;;16.13;7.57;;;;;;;1.01;100.00;96879.31;6218420;23;20423;-87
2023/01/31 19:42:09;;;;;;;15.18;6.68;;;;;;;0.97;100.00;96870.03;6243262;23;20426;-87
2023/01/31 19:44:38;;;;;;;12.30;7.03;;;;;;;0.99;100.00;96860.41;6218045;23;20016;-88
2023/01/31 19:47:18;;;;;;;16.20;6.50;;;;;;;0.98;100.00;96856.16;6218350;23;20438;-88
2023/01/31 19:49:44;;;;;;;11.73;6.53;;;;;;;0.99;100.00;96851.81;6243485;23;20405;-88
2023/01/31 19:52:09;;;;;;;14.67;7.30;;;;;;;0.96;100.00;96842.47;6217332;23;20431;-87
2023/01/31 19:54:37;;;;;;;20.33;6.57;;;;;;;0.94;100.00;96845.16;6243595;23;20091;-89
2023/01/31 19:57:03;;;;;;;13.60;7.20;;;;;;;0.90;100.00;96848.81;6243851;23;20019;-87
2023/01/31 19:59:29;;;;;;;18.47;9.53;;;;;;;0.88;100.00;96845.47;6243875;23;20465;-88
2023/01/31 20:01:57;;;;;;;14.87;7.30;;;;;;;0.79;100.00;96845.97;6245459;23;20405;-88
2023/01/31 20:04:39;;;;;;;13.93;7.37;;;;;;;0.82;100.00;96851.00;6222274;23;20023;-88
2023/01/31 20:07:07;;;;;;;12.53;6.77;;;;;;;0.82;100.00;96860.53;6246847;23;20449;-84
2023/01/31 20:09:33;;;;;;;13.77;7.37;;;;;;;0.83;100.00;96877.72;6246081;23;20501;-88
2023/01/31 20:12:05;;;;;;;12.77;6.80;;;;;;;0.83;100.00;96869.94;6240571;23;20435;-88
2023/01/31 20:14:31;;;;;;;11.67;6.70;;;;;;;0.87;100.00;96874.03;6200734;23;20012;-88
2023/01/31 20:16:57;;;;;;;15.57;7.80;;;;;;;0.92;100.00;96875.47;6196727;23;20525;-89
2023/01/31 20:19:23;;;;;;;14.47;7.20;;;;;;;0.86;100.00;96867.19;6197452;23;20934;-87
2023/01/31 20:21:49;;;;;;;15.23;8.40;;;;;;;0.85;100.00;96879.31;6226291;23;20466;-88
2023/01/31 20:24:17;;;;;;;18.00;9.77;;;;;;;0.86;100.00;96872.38;6236740;23;20387;-89
2023/01/31 20:26:44;;;;;;;19.17;8.20;;;;;;;0.95;100.00;96879.66;6228458;23;20461;-89
2023/01/31 20:29:11;;;;;;;16.27;6.83;;;;;;;0.86;100.00;96877.56;6211831;23;20427;-89
2023/01/31 20:31:41;;;;;;;15.10;7.70;;;;;;;0.86;100.00;96878.38;6232416;23;20562;-89
2023/01/31 20:34:10;;;;;;;15.47;7.63;;;;;;;0.88;100.00;96881.72;6245018;23;20415;-89
2023/01/31 20:36:37;;;;;;;16.03;7.73;;;;;;;0.87;100.00;96881.81;6241210;23;20500;-88
2023/01/31 20:39:03;;;;;;;14.30;8.17;;;;;;;0.91;100.00;96885.91;6242123;23;20502;-89
2023/01/31 20:41:43;;;;;;;16.30;8.47;;;;;;;0.92;100.00;96888.41;6231146;23;20430;-89
2023/01/31 20:44:09;;;;;;;16.90;7.73;;;;;;;0.90;100.00;96900.59;6246355;23;20015;-88
2023/01/31 20:46:46;;;;;;;18.30;7.83;;;;;;;0.89;100.00;96896.34;6217891;23;20993;-88
2023/01/31 20:49:16;;;;;;;16.10;8.03;;;;;;;0.98;100.00;96889.00;6244855;23;20415;-89
2023/01/31 20:51:50;;;;;;;15.27;7.10;;;;;;;1.01;100.00;96886.25;6245366;23;20437;-89
2023/01/31 20:54:16;;;;;;;14.60;7.40;;;;;;;1.01;100.00;96884.50;6243741;23;21200;-89
2023/01/31 20:56:42;;;;;;;13.60;6.90;;;;;;;1.06;100.00;96884.22;6243229;23;20465;-89
2023/01/31 20:59:09;;;;;;;13.80;7.07;;;;;;;1.11;100.00;96875.28;6242857;23;20419;-87
2023/01/31 21:01:35;;;;;;;13.23;6.60;;;;;;;1.13;100.00;96878.63;6241439;23;20446;-88
2023/01/31 21:04:02;;;;;;;13.30;7.73;;;;;;;1.12;100.00;96874.38;6242837;23;20473;-88
2023/01/31 21:06:28;;;;;;;10.73;6.60;;;;;;;1.12;100.00;96855.41;6243341;22;20513;-88
2023/01/31 21:08:55;;;;;;;10.53;6.37;;;;;;;1.14;100.00;96856.13;6215702;23;20993;-88
2023/01/31 21:11:25;;;;;;;11.93;6.27;;;;;;;1.11;100.00;96851.97;6208814;23;20791;-88
2023/01/31 21:13:51;;;;;;;11.47;6.00;;;;;;;1.10;100.00;96850.28;6241270;23;20407;-89
2023/01/31 21:16:17;;;;;;;12.83;6.33;;;;;;;1.13;100.00;96854.47;6220574;23;20454;-88
2023/01/31 21:18:42;;;;;;;11.93;6.83;;;;;;;1.10;100.00;96834.75;6219127;23;20410;-88
2023/01/31 21:21:21;;;;;;;12.27;6.57;;;;;;;1.11;100.00;96843.38;6251555;23;20422;-89
2023/01/31 21:23:47;;;;;;;15.57;7.27;;;;;;;1.12;100.00;96840.69;6264144;22;20020;-88
2023/01/31 21:26:13;;;;;;;16.40;7.57;;;;;;;1.14;100.00;96840.59;6264477;22;20427;-84
2023/01/31 21:28:39;;;;;;;11.80;5.97;;;;;;;1.26;100.00;96849.44;6237191;22;20017;-84
2023/01/31 21:31:08;;;;;;;14.93;7.43;;;;;;;1.16;100.00;96847.34;6246606;22;20103;-83
2023/01/31 21:33:35;;;;;;;14.70;7.20;;;;;;;1.12;100.00;96851.06;6241012;23;20135;-83
2023/01/31 21:36:07;;;;;;;12.23;6.57;;;;;;;1.14;100.00;96843.19;6214607;23;20414;-84
2023/01/31 21:38:33;;;;;;;16.30;8.43;;;;;;;1.12;100.00;96843.28;6214505;23;20430;-83
2023/01/31 21:43:43;;;;;;;13.53;6.60;;;;;;;1.14;100.00;96836.25;6240278;23;20118;-84
2023/01/31 21:46:30;;;;;;;14.77;7.53;;;;;;;1.15;100.00;96837.09;6214015;23;20423;-83
2023/01/31 21:49:07;;;;;;;11.87;6.43;;;;;;;1.15;100.00;96843.09;6215173;23;20012;-84
2023/01/31 21:51:33;;;;;;;13.33;6.17;;;;;;;1.15;100.00;96839.69;6239673;23;20439;-83
2023/01/31 21:53:58;;;;;;;13.17;5.93;;;;;;;1.13;100.00;96847.53;6240228;23;20051;-84
2023/01/31 21:56:27;;;;;;;12.00;7.10;;;;;;;1.12;100.00;96852.81;6216051;23;20019;-84
2023/01/31 21:59:03;;;;;;;15.20;7.13;;;;;;;1.10;100.00;96876.19;6240600;23;20490;-84
2023/01/31 22:01:31;;;;;;;23.07;10.90;;;;;;;1.04;100.00;96866.19;6214184;23;20016;-84
2023/01/31 22:03:58;;;;;;;11.73;5.97;;;;;;;1.05;100.00;96873.03;6239076;23;20423;-89
2023/01/31 22:06:26;;;;;;;12.80;7.83;;;;;;;1.02;100.00;96870.63;6214838;23;20143;-89
2023/01/31 22:08:57;;;;;;;13.57;7.43;;;;;;;1.03;100.00;96881.81;6215957;23;20491;-89
2023/01/31 22:11:24;;;;;;;14.17;7.53;;;;;;;1.02;100.00;96880.97;6243075;23;20446;-88
2023/01/31 22:13:51;;;;;;;15.50;7.30;;;;;;;1.09;100.00;96884.06;6219643;23;20431;-88
2023/01/31 22:16:19;;;;;;;13.80;6.23;;;;;;;0.98;100.00;96881.25;6227051;23;20430;-88
2023/01/31 22:18:50;;;;;;;14.27;6.63;;;;;;;1.01;100.00;96875.91;6226705;23;20415;-89
2023/01/31 22:21:17;;;;;;;12.73;7.23;;;;;;;1.07;100.00;96876.34;6216685;23;20012;-89
2023/01/31 22:23:48;;;;;;;13.80;6.37;;;;;;;1.09;100.00;96882.31;6216472;23;20411;-88
2023/01/31 22:26:17;;;;;;;13.30;6.37;;;;;;;1.11;100.00;96882.22;6241489;23;20012;-89
2023/01/31 22:28:43;;;;;;;13.00;6.23;;;;;;;1.13;100.00;96886.38;6242180;23;20395;-88
2023/01/31 22:31:09;;;;;;;13.10;6.80;;;;;;;1.15;100.00;96884.56;6215964;23;20805;-84
2023/01/31 22:33:38;;;;;;;14.97;6.77;;;;;;;1.16;100.00;96877.63;6239462;23;20087;-84
2023/01/31 22:36:09;;;;;;;12.53;6.07;;;;;;;1.20;100.00;96875.69;6214812;23;20418;-84
2023/01/31 22:38:35;;;;;;;13.53;6.67;;;;;;;1.17;100.00;96877.53;6240151;23;20016;-84